sensor_id;sensor_type;location;lat;lon;timestamp;P1;durP1;ratioP1;P2;durP2;ratioP2
10467;SDS011;5281;48.878;9.394;2022-12-07T00:01:23;7.03;;;5.83;;
10467;SDS011;5281;48.878;9.394;2022-12-07T00:03:52;6.80;;;5.57;;
10467;SDS011;5281;48.878;9.394;2022-12-07T00:06:23;6.07;;;4.87;;
10467;SDS011;5281;48.878;9.394;2022-12-07T00:08:50;8.53;;;5.50;;
10467;SDS011;5281;48.878;9.394;2022-12-07T00:11:18;6.73;;;5.40;;
10467;SDS011;5281;48.878;9.394;2022-12-07T00:13:46;6.53;;;5.50;;
10467;SDS011;5281;48.878;9.394;2022-12-07T00:16:14;7.27;;;5.67;;
10467;SDS011;5281;48.878;9.394;2022-12-07T00:18:42;7.93;;;5.57;;
10467;SDS011;5281;48.878;9.394;2022-12-07T00:21:10;6.97;;;5.97;;
10467;SDS011;5281;48.878;9.394;2022-12-07T00:23:40;7.50;;;5.33;;
10467;SDS011;5281;48.878;9.394;2022-12-07T00:26:09;6.73;;;5.57;;
10467;SDS011;5281;48.878;9.394;2022-12-07T00:28:37;6.10;;;5.07;;
10467;SDS011;5281;48.878;9.394;2022-12-07T00:31:05;5.70;;;5.10;;
10467;SDS011;5281;48.878;9.394;2022-12-07T00:33:34;6.77;;;5.53;;
10467;SDS011;5281;48.878;9.394;2022-12-07T00:36:02;6.43;;;5.60;;
10467;SDS011;5281;48.878;9.394;2022-12-07T00:38:32;7.27;;;5.23;;
10467;SDS011;5281;48.878;9.394;2022-12-07T00:41:02;7.70;;;5.40;;
10467;SDS011;5281;48.878;9.394;2022-12-07T00:43:30;7.40;;;5.33;;
10467;SDS011;5281;48.878;9.394;2022-12-07T00:45:58;7.57;;;5.17;;
10467;SDS011;5281;48.878;9.394;2022-12-07T00:48:24;5.60;;;4.67;;
10467;SDS011;5281;48.878;9.394;2022-12-07T00:50:51;6.67;;;5.33;;
10467;SDS011;5281;48.878;9.394;2022-12-07T00:53:19;8.17;;;5.83;;
10467;SDS011;5281;48.878;9.394;2022-12-07T00:55:46;6.60;;;5.53;;
10467;SDS011;5281;48.878;9.394;2022-12-07T00:58:15;5.80;;;5.00;;
10467;SDS011;5281;48.878;9.394;2022-12-07T01:00:42;7.37;;;5.67;;
10467;SDS011;5281;48.878;9.394;2022-12-07T01:03:10;6.97;;;5.27;;
10467;SDS011;5281;48.878;9.394;2022-12-07T01:05:39;8.53;;;5.40;;
10467;SDS011;5281;48.878;9.394;2022-12-07T01:08:06;6.73;;;5.43;;
10467;SDS011;5281;48.878;9.394;2022-12-07T01:10:34;7.60;;;5.00;;
10467;SDS011;5281;48.878;9.394;2022-12-07T01:13:01;8.63;;;5.40;;
10467;SDS011;5281;48.878;9.394;2022-12-07T01:15:29;7.43;;;5.43;;
10467;SDS011;5281;48.878;9.394;2022-12-07T01:17:56;6.30;;;5.50;;
10467;SDS011;5281;48.878;9.394;2022-12-07T01:20:23;6.83;;;5.63;;
10467;SDS011;5281;48.878;9.394;2022-12-07T01:22:50;6.57;;;5.23;;
10467;SDS011;5281;48.878;9.394;2022-12-07T01:25:17;6.67;;;5.30;;
10467;SDS011;5281;48.878;9.394;2022-12-07T01:27:44;8.73;;;6.10;;
10467;SDS011;5281;48.878;9.394;2022-12-07T01:30:11;6.67;;;5.60;;
10467;SDS011;5281;48.878;9.394;2022-12-07T01:32:40;6.77;;;5.50;;
10467;SDS011;5281;48.878;9.394;2022-12-07T01:35:07;6.27;;;5.67;;
10467;SDS011;5281;48.878;9.394;2022-12-07T01:37:35;5.37;;;4.83;;
10467;SDS011;5281;48.878;9.394;2022-12-07T01:40:02;6.07;;;5.13;;
10467;SDS011;5281;48.878;9.394;2022-12-07T01:42:30;8.37;;;5.37;;
10467;SDS011;5281;48.878;9.394;2022-12-07T01:45:31;9.87;;;5.50;;
10467;SDS011;5281;48.878;9.394;2022-12-07T01:48:05;6.30;;;5.37;;
10467;SDS011;5281;48.878;9.394;2022-12-07T01:50:34;7.00;;;4.90;;
10467;SDS011;5281;48.878;9.394;2022-12-07T01:53:03;5.53;;;4.80;;
10467;SDS011;5281;48.878;9.394;2022-12-07T01:55:32;6.97;;;5.17;;
10467;SDS011;5281;48.878;9.394;2022-12-07T01:58:02;7.67;;;5.77;;
10467;SDS011;5281;48.878;9.394;2022-12-07T02:00:29;6.57;;;5.70;;
10467;SDS011;5281;48.878;9.394;2022-12-07T02:02:57;8.43;;;5.70;;
10467;SDS011;5281;48.878;9.394;2022-12-07T02:05:31;5.70;;;5.10;;
10467;SDS011;5281;48.878;9.394;2022-12-07T02:07:59;7.57;;;5.60;;
10467;SDS011;5281;48.878;9.394;2022-12-07T02:10:28;6.27;;;5.60;;
10467;SDS011;5281;48.878;9.394;2022-12-07T02:12:58;6.50;;;5.23;;
10467;SDS011;5281;48.878;9.394;2022-12-07T02:15:32;7.93;;;5.57;;
10467;SDS011;5281;48.878;9.394;2022-12-07T02:18:07;6.00;;;5.40;;
10467;SDS011;5281;48.878;9.394;2022-12-07T02:20:41;6.23;;;4.97;;
10467;SDS011;5281;48.878;9.394;2022-12-07T02:23:23;8.40;;;5.63;;
10467;SDS011;5281;48.878;9.394;2022-12-07T02:26:10;6.97;;;5.43;;
10467;SDS011;5281;48.878;9.394;2022-12-07T02:29:09;6.73;;;5.80;;
10467;SDS011;5281;48.878;9.394;2022-12-07T02:31:41;7.33;;;5.43;;
10467;SDS011;5281;48.878;9.394;2022-12-07T02:34:13;8.27;;;6.27;;
10467;SDS011;5281;48.878;9.394;2022-12-07T02:36:50;8.40;;;6.07;;
10467;SDS011;5281;48.878;9.394;2022-12-07T02:39:23;9.60;;;6.30;;
10467;SDS011;5281;48.878;9.394;2022-12-07T02:41:58;9.23;;;6.67;;
10467;SDS011;5281;48.878;9.394;2022-12-07T02:44:30;7.90;;;6.57;;
10467;SDS011;5281;48.878;9.394;2022-12-07T02:46:59;7.00;;;5.77;;
10467;SDS011;5281;48.878;9.394;2022-12-07T02:49:29;7.73;;;6.20;;
10467;SDS011;5281;48.878;9.394;2022-12-07T02:51:57;8.90;;;6.70;;
10467;SDS011;5281;48.878;9.394;2022-12-07T02:54:24;7.80;;;6.13;;
10467;SDS011;5281;48.878;9.394;2022-12-07T02:56:52;7.90;;;6.20;;
10467;SDS011;5281;48.878;9.394;2022-12-07T02:59:27;8.80;;;5.93;;
10467;SDS011;5281;48.878;9.394;2022-12-07T03:02:08;7.43;;;6.00;;
10467;SDS011;5281;48.878;9.394;2022-12-07T03:04:45;9.83;;;7.03;;
10467;SDS011;5281;48.878;9.394;2022-12-07T03:07:21;7.10;;;5.87;;
10467;SDS011;5281;48.878;9.394;2022-12-07T03:09:59;8.07;;;6.10;;
10467;SDS011;5281;48.878;9.394;2022-12-07T03:12:31;6.50;;;5.80;;
10467;SDS011;5281;48.878;9.394;2022-12-07T03:15:03;7.77;;;6.27;;
10467;SDS011;5281;48.878;9.394;2022-12-07T03:17:36;6.93;;;5.97;;
10467;SDS011;5281;48.878;9.394;2022-12-07T03:20:07;8.50;;;6.37;;
10467;SDS011;5281;48.878;9.394;2022-12-07T03:22:37;7.67;;;6.87;;
10467;SDS011;5281;48.878;9.394;2022-12-07T03:25:07;7.27;;;6.27;;
10467;SDS011;5281;48.878;9.394;2022-12-07T03:27:37;7.87;;;6.40;;
10467;SDS011;5281;48.878;9.394;2022-12-07T03:30:09;8.03;;;6.17;;
10467;SDS011;5281;48.878;9.394;2022-12-07T03:32:41;8.17;;;6.20;;
10467;SDS011;5281;48.878;9.394;2022-12-07T03:35:12;8.07;;;6.10;;
10467;SDS011;5281;48.878;9.394;2022-12-07T03:37:43;10.17;;;6.53;;
10467;SDS011;5281;48.878;9.394;2022-12-07T03:40:15;10.87;;;6.60;;
10467;SDS011;5281;48.878;9.394;2022-12-07T03:42:48;10.87;;;6.97;;
10467;SDS011;5281;48.878;9.394;2022-12-07T03:45:17;8.77;;;6.53;;
10467;SDS011;5281;48.878;9.394;2022-12-07T03:47:47;8.20;;;6.57;;
10467;SDS011;5281;48.878;9.394;2022-12-07T03:50:22;7.63;;;6.33;;
10467;SDS011;5281;48.878;9.394;2022-12-07T03:52:58;9.73;;;6.03;;
10467;SDS011;5281;48.878;9.394;2022-12-07T03:55:31;8.73;;;6.03;;
10467;SDS011;5281;48.878;9.394;2022-12-07T03:58:02;8.30;;;7.00;;
10467;SDS011;5281;48.878;9.394;2022-12-07T04:00:33;8.00;;;6.40;;
10467;SDS011;5281;48.878;9.394;2022-12-07T04:03:00;8.43;;;6.40;;
10467;SDS011;5281;48.878;9.394;2022-12-07T04:05:26;10.23;;;6.90;;
10467;SDS011;5281;48.878;9.394;2022-12-07T04:07:54;9.77;;;7.40;;
10467;SDS011;5281;48.878;9.394;2022-12-07T04:10:20;9.57;;;7.00;;
10467;SDS011;5281;48.878;9.394;2022-12-07T04:12:47;7.87;;;6.60;;
10467;SDS011;5281;48.878;9.394;2022-12-07T04:15:14;9.40;;;7.13;;
10467;SDS011;5281;48.878;9.394;2022-12-07T04:17:42;7.20;;;6.10;;
10467;SDS011;5281;48.878;9.394;2022-12-07T04:20:10;7.90;;;6.70;;
10467;SDS011;5281;48.878;9.394;2022-12-07T04:22:37;8.53;;;7.07;;
10467;SDS011;5281;48.878;9.394;2022-12-07T04:25:05;7.27;;;6.27;;
10467;SDS011;5281;48.878;9.394;2022-12-07T04:27:32;8.87;;;6.77;;
10467;SDS011;5281;48.878;9.394;2022-12-07T04:29:59;8.83;;;6.87;;
10467;SDS011;5281;48.878;9.394;2022-12-07T04:32:26;10.13;;;6.90;;
10467;SDS011;5281;48.878;9.394;2022-12-07T04:34:54;10.20;;;7.00;;
10467;SDS011;5281;48.878;9.394;2022-12-07T04:37:20;8.27;;;7.10;;
10467;SDS011;5281;48.878;9.394;2022-12-07T04:39:47;8.27;;;6.43;;
10467;SDS011;5281;48.878;9.394;2022-12-07T04:42:14;9.37;;;7.10;;
10467;SDS011;5281;48.878;9.394;2022-12-07T04:44:41;9.77;;;7.10;;
10467;SDS011;5281;48.878;9.394;2022-12-07T04:47:08;7.80;;;6.17;;
10467;SDS011;5281;48.878;9.394;2022-12-07T04:49:34;9.07;;;7.20;;
10467;SDS011;5281;48.878;9.394;2022-12-07T04:52:02;14.77;;;10.23;;
10467;SDS011;5281;48.878;9.394;2022-12-07T04:54:29;10.47;;;8.43;;
10467;SDS011;5281;48.878;9.394;2022-12-07T04:56:56;10.30;;;7.97;;
10467;SDS011;5281;48.878;9.394;2022-12-07T04:59:23;8.53;;;6.97;;
10467;SDS011;5281;48.878;9.394;2022-12-07T05:01:49;9.60;;;7.10;;
10467;SDS011;5281;48.878;9.394;2022-12-07T05:04:16;8.63;;;6.60;;
10467;SDS011;5281;48.878;9.394;2022-12-07T05:06:43;8.83;;;6.63;;
10467;SDS011;5281;48.878;9.394;2022-12-07T05:09:12;8.53;;;6.40;;
10467;SDS011;5281;48.878;9.394;2022-12-07T05:11:38;8.50;;;6.07;;
10467;SDS011;5281;48.878;9.394;2022-12-07T05:14:06;10.00;;;7.33;;
10467;SDS011;5281;48.878;9.394;2022-12-07T05:16:35;9.67;;;7.60;;
10467;SDS011;5281;48.878;9.394;2022-12-07T05:19:02;9.80;;;7.83;;
10467;SDS011;5281;48.878;9.394;2022-12-07T05:21:29;10.67;;;7.27;;
10467;SDS011;5281;48.878;9.394;2022-12-07T05:23:56;9.33;;;7.23;;
10467;SDS011;5281;48.878;9.394;2022-12-07T05:26:24;9.33;;;7.40;;
10467;SDS011;5281;48.878;9.394;2022-12-07T05:28:51;8.80;;;7.43;;
10467;SDS011;5281;48.878;9.394;2022-12-07T05:31:18;9.10;;;7.07;;
10467;SDS011;5281;48.878;9.394;2022-12-07T05:33:45;8.63;;;6.87;;
10467;SDS011;5281;48.878;9.394;2022-12-07T05:36:12;8.77;;;6.73;;
10467;SDS011;5281;48.878;9.394;2022-12-07T05:38:39;11.77;;;7.40;;
10467;SDS011;5281;48.878;9.394;2022-12-07T05:41:06;7.87;;;6.70;;
10467;SDS011;5281;48.878;9.394;2022-12-07T05:43:55;9.57;;;7.10;;
10467;SDS011;5281;48.878;9.394;2022-12-07T05:46:22;7.97;;;6.60;;
10467;SDS011;5281;48.878;9.394;2022-12-07T05:48:49;7.93;;;7.07;;
10467;SDS011;5281;48.878;9.394;2022-12-07T05:51:16;13.90;;;8.70;;
10467;SDS011;5281;48.878;9.394;2022-12-07T05:53:43;9.70;;;7.53;;
10467;SDS011;5281;48.878;9.394;2022-12-07T05:56:10;9.17;;;7.33;;
10467;SDS011;5281;48.878;9.394;2022-12-07T05:58:37;15.03;;;9.60;;
10467;SDS011;5281;48.878;9.394;2022-12-07T06:01:23;10.03;;;7.43;;
10467;SDS011;5281;48.878;9.394;2022-12-07T06:03:49;9.70;;;7.23;;
10467;SDS011;5281;48.878;9.394;2022-12-07T06:06:16;9.90;;;8.10;;
10467;SDS011;5281;48.878;9.394;2022-12-07T06:08:43;10.30;;;7.43;;
10467;SDS011;5281;48.878;9.394;2022-12-07T06:11:10;8.87;;;6.30;;
10467;SDS011;5281;48.878;9.394;2022-12-07T06:13:54;9.50;;;6.90;;
10467;SDS011;5281;48.878;9.394;2022-12-07T06:16:22;15.30;;;8.13;;
10467;SDS011;5281;48.878;9.394;2022-12-07T06:18:49;9.83;;;7.00;;
10467;SDS011;5281;48.878;9.394;2022-12-07T06:21:16;11.50;;;7.70;;
10467;SDS011;5281;48.878;9.394;2022-12-07T06:23:42;10.03;;;7.13;;
10467;SDS011;5281;48.878;9.394;2022-12-07T06:26:09;11.10;;;7.70;;
10467;SDS011;5281;48.878;9.394;2022-12-07T06:28:36;10.40;;;6.60;;
10467;SDS011;5281;48.878;9.394;2022-12-07T06:31:03;11.80;;;9.03;;
10467;SDS011;5281;48.878;9.394;2022-12-07T06:33:31;16.33;;;10.40;;
10467;SDS011;5281;48.878;9.394;2022-12-07T06:35:58;13.60;;;10.20;;
10467;SDS011;5281;48.878;9.394;2022-12-07T06:38:25;13.43;;;8.40;;
10467;SDS011;5281;48.878;9.394;2022-12-07T06:40:51;7.90;;;6.53;;
10467;SDS011;5281;48.878;9.394;2022-12-07T06:43:18;10.60;;;6.80;;
10467;SDS011;5281;48.878;9.394;2022-12-07T06:45:45;10.93;;;7.70;;
10467;SDS011;5281;48.878;9.394;2022-12-07T06:48:11;10.03;;;7.40;;
10467;SDS011;5281;48.878;9.394;2022-12-07T06:50:40;12.07;;;6.80;;
10467;SDS011;5281;48.878;9.394;2022-12-07T06:53:07;10.60;;;6.97;;
10467;SDS011;5281;48.878;9.394;2022-12-07T06:55:35;9.20;;;6.90;;
10467;SDS011;5281;48.878;9.394;2022-12-07T06:58:01;11.33;;;8.20;;
10467;SDS011;5281;48.878;9.394;2022-12-07T07:00:28;10.80;;;8.10;;
10467;SDS011;5281;48.878;9.394;2022-12-07T07:02:55;15.23;;;9.30;;
10467;SDS011;5281;48.878;9.394;2022-12-07T07:05:22;55.10;;;25.00;;
10467;SDS011;5281;48.878;9.394;2022-12-07T07:07:50;24.63;;;14.67;;
10467;SDS011;5281;48.878;9.394;2022-12-07T07:10:17;25.87;;;14.70;;
10467;SDS011;5281;48.878;9.394;2022-12-07T07:12:44;20.63;;;13.63;;
10467;SDS011;5281;48.878;9.394;2022-12-07T07:15:10;22.83;;;17.40;;
10467;SDS011;5281;48.878;9.394;2022-12-07T07:17:37;21.73;;;16.00;;
10467;SDS011;5281;48.878;9.394;2022-12-07T07:20:04;37.10;;;26.83;;
10467;SDS011;5281;48.878;9.394;2022-12-07T07:22:32;15.03;;;10.60;;
10467;SDS011;5281;48.878;9.394;2022-12-07T07:25:00;18.93;;;10.83;;
10467;SDS011;5281;48.878;9.394;2022-12-07T07:27:27;15.47;;;8.47;;
10467;SDS011;5281;48.878;9.394;2022-12-07T07:29:53;11.20;;;8.20;;
10467;SDS011;5281;48.878;9.394;2022-12-07T07:32:20;11.17;;;8.17;;
10467;SDS011;5281;48.878;9.394;2022-12-07T07:34:47;10.63;;;8.43;;
10467;SDS011;5281;48.878;9.394;2022-12-07T07:37:14;41.57;;;28.87;;
10467;SDS011;5281;48.878;9.394;2022-12-07T07:39:41;15.53;;;10.47;;
10467;SDS011;5281;48.878;9.394;2022-12-07T07:42:09;10.00;;;7.43;;
10467;SDS011;5281;48.878;9.394;2022-12-07T07:44:36;10.27;;;6.73;;
10467;SDS011;5281;48.878;9.394;2022-12-07T07:47:03;7.77;;;6.67;;
10467;SDS011;5281;48.878;9.394;2022-12-07T07:49:30;10.40;;;6.53;;
10467;SDS011;5281;48.878;9.394;2022-12-07T07:51:57;9.77;;;7.30;;
10467;SDS011;5281;48.878;9.394;2022-12-07T07:54:24;8.03;;;6.17;;
10467;SDS011;5281;48.878;9.394;2022-12-07T07:56:51;9.93;;;6.60;;
10467;SDS011;5281;48.878;9.394;2022-12-07T07:59:20;8.10;;;5.40;;
10467;SDS011;5281;48.878;9.394;2022-12-07T08:01:47;9.33;;;5.50;;
10467;SDS011;5281;48.878;9.394;2022-12-07T08:04:14;7.27;;;5.60;;
10467;SDS011;5281;48.878;9.394;2022-12-07T08:06:41;14.17;;;10.00;;
10467;SDS011;5281;48.878;9.394;2022-12-07T08:09:08;7.60;;;5.83;;
10467;SDS011;5281;48.878;9.394;2022-12-07T08:11:36;6.80;;;5.27;;
10467;SDS011;5281;48.878;9.394;2022-12-07T08:14:03;6.17;;;5.03;;
10467;SDS011;5281;48.878;9.394;2022-12-07T08:16:31;9.30;;;5.03;;
10467;SDS011;5281;48.878;9.394;2022-12-07T08:18:58;9.70;;;5.70;;
10467;SDS011;5281;48.878;9.394;2022-12-07T08:21:25;10.73;;;5.47;;
10467;SDS011;5281;48.878;9.394;2022-12-07T08:23:52;8.37;;;5.20;;
10467;SDS011;5281;48.878;9.394;2022-12-07T08:26:18;6.47;;;5.00;;
10467;SDS011;5281;48.878;9.394;2022-12-07T08:28:45;7.87;;;5.47;;
10467;SDS011;5281;48.878;9.394;2022-12-07T08:31:13;8.57;;;4.97;;
10467;SDS011;5281;48.878;9.394;2022-12-07T08:33:43;9.83;;;5.10;;
10467;SDS011;5281;48.878;9.394;2022-12-07T08:36:11;9.73;;;5.10;;
10467;SDS011;5281;48.878;9.394;2022-12-07T08:38:39;7.17;;;5.17;;
10467;SDS011;5281;48.878;9.394;2022-12-07T08:41:07;6.63;;;4.77;;
10467;SDS011;5281;48.878;9.394;2022-12-07T08:43:34;7.70;;;4.63;;
10467;SDS011;5281;48.878;9.394;2022-12-07T08:46:04;9.70;;;4.90;;
10467;SDS011;5281;48.878;9.394;2022-12-07T08:48:35;9.83;;;5.30;;
10467;SDS011;5281;48.878;9.394;2022-12-07T08:51:06;7.63;;;4.70;;
10467;SDS011;5281;48.878;9.394;2022-12-07T08:53:33;6.43;;;4.77;;
10467;SDS011;5281;48.878;9.394;2022-12-07T08:56:01;6.80;;;4.97;;
10467;SDS011;5281;48.878;9.394;2022-12-07T08:58:29;6.17;;;4.13;;
10467;SDS011;5281;48.878;9.394;2022-12-07T09:00:56;7.73;;;5.03;;
10467;SDS011;5281;48.878;9.394;2022-12-07T09:03:23;5.00;;;4.10;;
10467;SDS011;5281;48.878;9.394;2022-12-07T09:05:50;6.47;;;4.40;;
10467;SDS011;5281;48.878;9.394;2022-12-07T09:08:19;6.50;;;4.27;;
10467;SDS011;5281;48.878;9.394;2022-12-07T09:10:47;4.73;;;4.23;;
10467;SDS011;5281;48.878;9.394;2022-12-07T09:13:14;8.30;;;4.10;;
10467;SDS011;5281;48.878;9.394;2022-12-07T09:15:41;6.60;;;4.37;;
10467;SDS011;5281;48.878;9.394;2022-12-07T09:18:08;7.07;;;4.40;;
10467;SDS011;5281;48.878;9.394;2022-12-07T09:20:35;5.10;;;4.50;;
10467;SDS011;5281;48.878;9.394;2022-12-07T09:23:02;5.57;;;4.50;;
10467;SDS011;5281;48.878;9.394;2022-12-07T09:25:32;6.30;;;4.40;;
10467;SDS011;5281;48.878;9.394;2022-12-07T09:27:59;7.23;;;5.13;;
10467;SDS011;5281;48.878;9.394;2022-12-07T09:30:27;5.90;;;4.10;;
10467;SDS011;5281;48.878;9.394;2022-12-07T09:32:54;5.80;;;4.73;;
10467;SDS011;5281;48.878;9.394;2022-12-07T09:35:22;6.47;;;4.67;;
10467;SDS011;5281;48.878;9.394;2022-12-07T09:37:51;5.73;;;4.23;;
10467;SDS011;5281;48.878;9.394;2022-12-07T09:40:19;6.27;;;4.60;;
10467;SDS011;5281;48.878;9.394;2022-12-07T09:42:49;10.50;;;7.30;;
10467;SDS011;5281;48.878;9.394;2022-12-07T09:45:19;6.60;;;4.93;;
10467;SDS011;5281;48.878;9.394;2022-12-07T09:47:49;8.80;;;5.13;;
10467;SDS011;5281;48.878;9.394;2022-12-07T09:50:16;7.40;;;4.90;;
10467;SDS011;5281;48.878;9.394;2022-12-07T09:52:47;10.03;;;5.20;;
10467;SDS011;5281;48.878;9.394;2022-12-07T09:55:16;7.20;;;4.97;;
10467;SDS011;5281;48.878;9.394;2022-12-07T09:57:50;7.23;;;5.03;;
10467;SDS011;5281;48.878;9.394;2022-12-07T10:00:18;7.30;;;4.57;;
10467;SDS011;5281;48.878;9.394;2022-12-07T10:02:47;10.10;;;4.70;;
10467;SDS011;5281;48.878;9.394;2022-12-07T10:05:18;7.20;;;5.10;;
10467;SDS011;5281;48.878;9.394;2022-12-07T10:07:48;16.10;;;8.97;;
10467;SDS011;5281;48.878;9.394;2022-12-07T10:10:15;6.17;;;4.87;;
10467;SDS011;5281;48.878;9.394;2022-12-07T10:12:54;7.83;;;4.87;;
10467;SDS011;5281;48.878;9.394;2022-12-07T10:15:23;6.73;;;4.70;;
10467;SDS011;5281;48.878;9.394;2022-12-07T10:18:14;5.33;;;4.10;;
10467;SDS011;5281;48.878;9.394;2022-12-07T10:20:45;8.00;;;4.03;;
10467;SDS011;5281;48.878;9.394;2022-12-07T10:23:14;4.90;;;3.73;;
10467;SDS011;5281;48.878;9.394;2022-12-07T10:25:42;6.43;;;4.10;;
10467;SDS011;5281;48.878;9.394;2022-12-07T10:28:14;4.53;;;3.73;;
10467;SDS011;5281;48.878;9.394;2022-12-07T10:30:46;7.07;;;3.60;;
10467;SDS011;5281;48.878;9.394;2022-12-07T10:36:18;8.73;;;3.43;;
10467;SDS011;5281;48.878;9.394;2022-12-07T10:38:48;5.93;;;4.10;;
10467;SDS011;5281;48.878;9.394;2022-12-07T10:41:17;5.00;;;3.80;;
10467;SDS011;5281;48.878;9.394;2022-12-07T10:43:50;4.70;;;3.60;;
10467;SDS011;5281;48.878;9.394;2022-12-07T10:46:22;5.13;;;3.77;;
10467;SDS011;5281;48.878;9.394;2022-12-07T10:52:40;6.70;;;4.10;;
10467;SDS011;5281;48.878;9.394;2022-12-07T10:55:33;5.90;;;3.70;;
10467;SDS011;5281;48.878;9.394;2022-12-07T10:58:21;6.07;;;4.00;;
10467;SDS011;5281;48.878;9.394;2022-12-07T11:01:00;6.43;;;4.03;;
10467;SDS011;5281;48.878;9.394;2022-12-07T11:03:38;8.10;;;4.80;;
10467;SDS011;5281;48.878;9.394;2022-12-07T11:06:23;5.20;;;4.00;;
10467;SDS011;5281;48.878;9.394;2022-12-07T11:08:58;5.47;;;4.60;;
10467;SDS011;5281;48.878;9.394;2022-12-07T11:11:31;10.60;;;5.83;;
10467;SDS011;5281;48.878;9.394;2022-12-07T11:14:04;7.80;;;4.80;;
10467;SDS011;5281;48.878;9.394;2022-12-07T11:16:45;7.67;;;4.13;;
10467;SDS011;5281;48.878;9.394;2022-12-07T11:19:22;5.20;;;4.17;;
10467;SDS011;5281;48.878;9.394;2022-12-07T11:22:06;5.47;;;4.50;;
10467;SDS011;5281;48.878;9.394;2022-12-07T11:24:40;5.53;;;4.47;;
10467;SDS011;5281;48.878;9.394;2022-12-07T11:27:17;6.50;;;3.83;;
10467;SDS011;5281;48.878;9.394;2022-12-07T11:29:55;7.60;;;4.17;;
10467;SDS011;5281;48.878;9.394;2022-12-07T11:32:51;5.40;;;4.13;;
10467;SDS011;5281;48.878;9.394;2022-12-07T11:35:28;5.13;;;4.03;;
10467;SDS011;5281;48.878;9.394;2022-12-07T11:37:59;4.43;;;3.53;;
10467;SDS011;5281;48.878;9.394;2022-12-07T11:40:29;4.73;;;3.70;;
10467;SDS011;5281;48.878;9.394;2022-12-07T11:43:01;6.77;;;4.17;;
10467;SDS011;5281;48.878;9.394;2022-12-07T11:45:33;6.80;;;4.00;;
10467;SDS011;5281;48.878;9.394;2022-12-07T11:48:02;5.70;;;3.90;;
10467;SDS011;5281;48.878;9.394;2022-12-07T11:50:34;6.27;;;4.60;;
10467;SDS011;5281;48.878;9.394;2022-12-07T11:53:09;5.73;;;4.40;;
10467;SDS011;5281;48.878;9.394;2022-12-07T11:55:41;4.43;;;3.80;;
10467;SDS011;5281;48.878;9.394;2022-12-07T11:58:26;6.20;;;4.10;;
10467;SDS011;5281;48.878;9.394;2022-12-07T12:01:08;6.20;;;4.60;;
10467;SDS011;5281;48.878;9.394;2022-12-07T12:03:44;5.30;;;4.13;;
10467;SDS011;5281;48.878;9.394;2022-12-07T12:06:12;5.73;;;4.07;;
10467;SDS011;5281;48.878;9.394;2022-12-07T12:08:41;5.47;;;3.93;;
10467;SDS011;5281;48.878;9.394;2022-12-07T12:11:14;5.57;;;4.47;;
10467;SDS011;5281;48.878;9.394;2022-12-07T12:14:05;5.27;;;4.67;;
10467;SDS011;5281;48.878;9.394;2022-12-07T12:17:04;6.00;;;5.03;;
10467;SDS011;5281;48.878;9.394;2022-12-07T12:19:54;7.03;;;5.27;;
10467;SDS011;5281;48.878;9.394;2022-12-07T12:22:32;6.57;;;5.00;;
10467;SDS011;5281;48.878;9.394;2022-12-07T12:25:03;6.53;;;5.17;;
10467;SDS011;5281;48.878;9.394;2022-12-07T12:27:33;7.13;;;5.17;;
10467;SDS011;5281;48.878;9.394;2022-12-07T12:30:02;6.53;;;5.20;;
10467;SDS011;5281;48.878;9.394;2022-12-07T12:32:34;8.57;;;5.63;;
10467;SDS011;5281;48.878;9.394;2022-12-07T12:35:22;8.20;;;5.60;;
10467;SDS011;5281;48.878;9.394;2022-12-07T12:37:56;6.57;;;5.00;;
10467;SDS011;5281;48.878;9.394;2022-12-07T12:40:59;7.40;;;5.77;;
10467;SDS011;5281;48.878;9.394;2022-12-07T12:43:40;8.23;;;5.27;;
10467;SDS011;5281;48.878;9.394;2022-12-07T12:58:31;7.97;;;5.53;;
10467;SDS011;5281;48.878;9.394;2022-12-07T13:07:47;7.30;;;5.70;;
10467;SDS011;5281;48.878;9.394;2022-12-07T13:10:24;7.70;;;5.47;;
10467;SDS011;5281;48.878;9.394;2022-12-07T13:13:05;9.53;;;5.90;;
10467;SDS011;5281;48.878;9.394;2022-12-07T13:15:56;7.97;;;5.23;;
10467;SDS011;5281;48.878;9.394;2022-12-07T13:25:18;9.47;;;6.00;;
10467;SDS011;5281;48.878;9.394;2022-12-07T13:27:56;9.43;;;6.13;;
10467;SDS011;5281;48.878;9.394;2022-12-07T13:30:29;9.97;;;7.50;;
10467;SDS011;5281;48.878;9.394;2022-12-07T13:32:57;14.27;;;5.53;;
10467;SDS011;5281;48.878;9.394;2022-12-07T13:35:34;9.00;;;5.67;;
10467;SDS011;5281;48.878;9.394;2022-12-07T13:38:04;9.83;;;6.07;;
10467;SDS011;5281;48.878;9.394;2022-12-07T13:40:59;7.63;;;6.07;;
10467;SDS011;5281;48.878;9.394;2022-12-07T13:43:30;8.03;;;5.67;;
10467;SDS011;5281;48.878;9.394;2022-12-07T13:45:58;11.30;;;6.20;;
10467;SDS011;5281;48.878;9.394;2022-12-07T13:48:28;8.27;;;5.90;;
10467;SDS011;5281;48.878;9.394;2022-12-07T13:50:58;10.80;;;7.13;;
10467;SDS011;5281;48.878;9.394;2022-12-07T13:53:27;7.73;;;6.50;;
10467;SDS011;5281;48.878;9.394;2022-12-07T13:55:55;8.07;;;6.10;;
10467;SDS011;5281;48.878;9.394;2022-12-07T13:58:23;9.93;;;6.10;;
10467;SDS011;5281;48.878;9.394;2022-12-07T14:00:51;8.37;;;6.40;;
10467;SDS011;5281;48.878;9.394;2022-12-07T14:03:30;9.97;;;6.73;;
10467;SDS011;5281;48.878;9.394;2022-12-07T14:06:06;9.03;;;6.60;;
10467;SDS011;5281;48.878;9.394;2022-12-07T14:08:50;10.57;;;6.47;;
10467;SDS011;5281;48.878;9.394;2022-12-07T14:11:17;10.13;;;6.37;;
10467;SDS011;5281;48.878;9.394;2022-12-07T14:16:32;10.37;;;6.63;;
10467;SDS011;5281;48.878;9.394;2022-12-07T14:19:02;7.90;;;6.77;;
10467;SDS011;5281;48.878;9.394;2022-12-07T14:21:30;8.53;;;6.57;;
10467;SDS011;5281;48.878;9.394;2022-12-07T14:24:02;8.63;;;6.53;;
10467;SDS011;5281;48.878;9.394;2022-12-07T14:26:42;9.40;;;7.10;;
10467;SDS011;5281;48.878;9.394;2022-12-07T14:29:27;11.73;;;7.30;;
10467;SDS011;5281;48.878;9.394;2022-12-07T14:31:58;8.93;;;7.03;;
10467;SDS011;5281;48.878;9.394;2022-12-07T14:34:43;9.90;;;6.97;;
10467;SDS011;5281;48.878;9.394;2022-12-07T14:37:20;8.33;;;6.47;;
10467;SDS011;5281;48.878;9.394;2022-12-07T14:39:47;8.30;;;6.40;;
10467;SDS011;5281;48.878;9.394;2022-12-07T14:42:13;9.57;;;6.70;;
10467;SDS011;5281;48.878;9.394;2022-12-07T14:44:40;10.83;;;6.90;;
10467;SDS011;5281;48.878;9.394;2022-12-07T14:47:08;10.57;;;6.40;;
10467;SDS011;5281;48.878;9.394;2022-12-07T14:49:35;9.13;;;6.87;;
10467;SDS011;5281;48.878;9.394;2022-12-07T14:52:04;12.43;;;7.07;;
10467;SDS011;5281;48.878;9.394;2022-12-07T14:54:32;7.87;;;6.77;;
10467;SDS011;5281;48.878;9.394;2022-12-07T14:56:59;8.87;;;6.50;;
10467;SDS011;5281;48.878;9.394;2022-12-07T14:59:26;11.07;;;7.47;;
10467;SDS011;5281;48.878;9.394;2022-12-07T15:01:53;11.33;;;8.30;;
10467;SDS011;5281;48.878;9.394;2022-12-07T15:04:20;12.60;;;9.40;;
10467;SDS011;5281;48.878;9.394;2022-12-07T15:06:54;14.03;;;9.70;;
10467;SDS011;5281;48.878;9.394;2022-12-07T15:09:23;12.70;;;9.00;;
10467;SDS011;5281;48.878;9.394;2022-12-07T15:11:50;11.37;;;7.83;;
10467;SDS011;5281;48.878;9.394;2022-12-07T15:14:17;11.33;;;7.40;;
10467;SDS011;5281;48.878;9.394;2022-12-07T15:16:44;14.27;;;10.47;;
10467;SDS011;5281;48.878;9.394;2022-12-07T15:19:12;25.83;;;15.57;;
10467;SDS011;5281;48.878;9.394;2022-12-07T15:21:40;13.60;;;8.93;;
10467;SDS011;5281;48.878;9.394;2022-12-07T15:24:08;11.70;;;7.50;;
10467;SDS011;5281;48.878;9.394;2022-12-07T15:26:37;10.37;;;7.67;;
10467;SDS011;5281;48.878;9.394;2022-12-07T15:29:05;11.70;;;8.57;;
10467;SDS011;5281;48.878;9.394;2022-12-07T15:31:33;12.57;;;8.47;;
10467;SDS011;5281;48.878;9.394;2022-12-07T15:34:00;13.23;;;7.70;;
10467;SDS011;5281;48.878;9.394;2022-12-07T15:36:28;14.47;;;8.10;;
10467;SDS011;5281;48.878;9.394;2022-12-07T15:38:56;14.97;;;8.50;;
10467;SDS011;5281;48.878;9.394;2022-12-07T15:41:23;11.10;;;8.03;;
10467;SDS011;5281;48.878;9.394;2022-12-07T15:43:51;11.87;;;7.70;;
10467;SDS011;5281;48.878;9.394;2022-12-07T15:46:36;9.07;;;7.10;;
10467;SDS011;5281;48.878;9.394;2022-12-07T15:49:05;10.47;;;7.00;;
10467;SDS011;5281;48.878;9.394;2022-12-07T15:51:35;10.83;;;7.63;;
10467;SDS011;5281;48.878;9.394;2022-12-07T15:54:02;9.10;;;7.03;;